Time;durP1;ratioP1;P1;durP2;ratioP2;P2;SDS_P1;SDS_P2;PMS_P1;PMS_P2;Temp;Humidity;BMP_temperature;BMP_pressure;BME280_temperature;BME280_humidity;BME280_pressure;Samples;Min_cycle;Max_cycle;Signal;HPM_P1;HPM_P2
2022/01/19 00:01:46;;;;;;;23.02;12.85;;;;;;;;;;5047780;28;20058;-68
2022/01/19 00:04:12;;;;;;;20.88;12.88;;;;;;;;;;5046868;28;20145;-78
2022/01/19 00:06:39;;;;;;;26.13;12.73;;;;;;;;;;5049782;28;20454;-77
2022/01/19 00:09:05;;;;;;;24.98;12.32;;;;;;;;;;5048904;28;20053;-78
2022/01/19 00:11:32;;;;;;;19.88;11.35;;;;;;;;;;5045269;28;20083;-83
2022/01/19 00:13:58;;;;;;;24.73;13.20;;;;;;;;;;5047486;28;20442;-78
2022/01/19 00:16:25;;;;;;;24.38;12.60;;;;;;;;;;5049767;28;20373;-72
2022/01/19 00:18:51;;;;;;;24.73;13.20;;;;;;;;;;5049234;28;20380;-71
2022/01/19 00:21:17;;;;;;;29.70;13.73;;;;;;;;;;5049186;28;20117;-79
2022/01/19 00:23:43;;;;;;;24.92;13.18;;;;;;;;;;5025547;28;20068;-78
2022/01/19 00:26:10;;;;;;;25.02;12.65;;;;;;;;;;5050838;28;20049;-80
2022/01/19 00:28:37;;;;;;;24.75;12.48;;;;;;;;;;5049933;28;20040;-77
2022/01/19 00:31:04;;;;;;;20.92;12.10;;;;;;;;;;5050376;28;20044;-77
2022/01/19 00:33:30;;;;;;;21.27;11.93;;;;;;;;;;5045571;28;20059;-82
2022/01/19 00:35:56;;;;;;;23.55;11.52;;;;;;;;;;5048499;28;20059;-76
2022/01/19 00:38:22;;;;;;;18.50;10.70;;;;;;;;;;5047563;28;20345;-79
2022/01/19 00:40:48;;;;;;;20.88;11.32;;;;;;;;;;5031378;28;20068;-67
2022/01/19 00:43:15;;;;;;;17.98;10.70;;;;;;;;;;5047821;28;20661;-67
2022/01/19 00:45:42;;;;;;;15.68;9.80;;;;;;;;;;5049491;28;20083;-79
2022/01/19 00:48:08;;;;;;;19.40;9.68;;;;;;;;;;5049372;28;20060;-77
2022/01/19 00:50:34;;;;;;;20.48;10.38;;;;;;;;;;5048291;28;20071;-80
2022/01/19 00:53:00;;;;;;;19.83;10.65;;;;;;;;;;5046628;28;21170;-81
2022/01/19 00:55:27;;;;;;;16.58;10.23;;;;;;;;;;5048059;28;20067;-74
2022/01/19 00:57:54;;;;;;;19.33;10.30;;;;;;;;;;5048069;28;20681;-72
2022/01/19 01:00:24;;;;;;;17.00;10.10;;;;;;;;;;5048757;28;20510;-80
2022/01/19 01:02:50;;;;;;;19.50;10.15;;;;;;;;;;5042332;28;20640;-78
2022/01/19 01:05:17;;;;;;;15.73;8.95;;;;;;;;;;5045425;28;20508;-77
2022/01/19 01:07:43;;;;;;;17.38;10.55;;;;;;;;;;5047570;28;20056;-75
2022/01/19 01:10:13;;;;;;;17.30;9.35;;;;;;;;;;5030149;28;20060;-80
2022/01/19 01:12:45;;;;;;;16.80;9.93;;;;;;;;;;5043091;28;20071;-81
2022/01/19 01:15:28;;;;;;;19.20;9.85;;;;;;;;;;5048237;28;20322;-69
2022/01/19 01:20:36;;;;;;;21.70;9.95;;;;;;;;;;5046063;28;20141;-81
2022/01/19 01:23:07;;;;;;;16.60;9.40;;;;;;;;;;5039595;28;20048;-77
2022/01/19 01:25:35;;;;;;;14.63;8.95;;;;;;;;;;5043109;28;20337;-72
2022/01/19 01:28:01;;;;;;;15.73;8.55;;;;;;;;;;5046938;28;20131;-77
2022/01/19 01:30:27;;;;;;;19.23;9.77;;;;;;;;;;5029115;28;20053;-80
2022/01/19 01:32:53;;;;;;;19.33;9.52;;;;;;;;;;5041168;28;20045;-69
2022/01/19 01:35:19;;;;;;;12.98;8.27;;;;;;;;;;5042164;28;20056;-69
2022/01/19 01:37:46;;;;;;;12.82;8.23;;;;;;;;;;5043958;28;20052;-75
2022/01/19 01:40:15;;;;;;;12.00;8.38;;;;;;;;;;5045945;28;20044;-73
2022/01/19 01:42:41;;;;;;;16.83;8.07;;;;;;;;;;5042182;28;20086;-78
2022/01/19 01:45:14;;;;;;;14.43;8.40;;;;;;;;;;5047425;28;20044;-76
2022/01/19 01:47:50;;;;;;;14.82;8.77;;;;;;;;;;5044790;28;20139;-79
2022/01/19 01:55:27;;;;;;;15.70;8.77;;;;;;;;;;5045990;28;20063;-71
2022/01/19 01:57:55;;;;;;;16.42;8.50;;;;;;;;;;5045513;28;20056;-70
2022/01/19 02:00:25;;;;;;;20.88;8.38;;;;;;;;;;5046356;28;20048;-69
2022/01/19 02:02:52;;;;;;;13.75;8.23;;;;;;;;;;5042261;28;20521;-75
2022/01/19 02:05:18;;;;;;;12.30;8.02;;;;;;;;;;5042949;28;20084;-81
2022/01/19 02:08:02;;;;;;;14.25;8.07;;;;;;;;;;5025393;28;20553;-78
2022/01/19 02:10:37;;;;;;;17.67;8.35;;;;;;;;;;5047234;28;20057;-81
2022/01/19 02:16:49;;;;;;;23.83;9.27;;;;;;;;;;5046322;28;20067;-76
2022/01/19 02:21:58;;;;;;;17.70;8.18;;;;;;;;;;5050543;28;20406;-72
2022/01/19 02:24:29;;;;;;;17.20;8.68;;;;;;;;;;5046921;28;20139;-70
2022/01/19 02:40:25;;;;;;;12.10;7.22;;;;;;;;;;5048454;28;20052;-66
2022/01/19 02:50:59;;;;;;;13.63;6.68;;;;;;;;;;5054548;28;20155;-79
2022/01/19 02:53:26;;;;;;;11.82;6.47;;;;;;;;;;5028339;28;20530;-83
2022/01/19 02:55:52;;;;;;;11.38;6.30;;;;;;;;;;5050723;28;20229;-68
2022/01/19 02:58:21;;;;;;;14.05;6.95;;;;;;;;;;5048758;28;20052;-69
2022/01/19 03:09:04;;;;;;;9.50;5.63;;;;;;;;;;5051370;28;20032;-76
2022/01/19 03:11:31;;;;;;;10.90;5.70;;;;;;;;;;5050986;28;21141;-75
2022/01/19 03:13:58;;;;;;;10.02;5.70;;;;;;;;;;5029760;28;20392;-72
2022/01/19 03:16:24;;;;;;;11.77;5.60;;;;;;;;;;5051399;28;20528;-83
2022/01/19 03:18:51;;;;;;;11.93;5.70;;;;;;;;;;5050830;28;20281;-73
2022/01/19 03:21:18;;;;;;;14.05;5.88;;;;;;;;;;5055539;28;20052;-76
2022/01/19 03:23:45;;;;;;;13.32;5.82;;;;;;;;;;5030929;28;20048;-68
2022/01/19 03:26:11;;;;;;;10.77;5.43;;;;;;;;;;5050878;28;20055;-75
2022/01/19 03:28:38;;;;;;;11.30;5.47;;;;;;;;;;5052904;28;20112;-82
2022/01/19 03:31:04;;;;;;;8.27;5.10;;;;;;;;;;5049393;28;20343;-84
2022/01/19 03:33:31;;;;;;;10.25;5.10;;;;;;;;;;5047924;28;20056;-80
2022/01/19 03:35:57;;;;;;;13.43;5.20;;;;;;;;;;5051763;28;20885;-71
2022/01/19 03:38:23;;;;;;;11.45;5.88;;;;;;;;;;5051523;28;20067;-69
2022/01/19 03:40:50;;;;;;;9.38;5.72;;;;;;;;;;5053335;28;20579;-70
2022/01/19 03:43:16;;;;;;;9.05;5.07;;;;;;;;;;5027366;28;20056;-76
2022/01/19 03:45:51;;;;;;;10.02;5.18;;;;;;;;;;5049747;28;20064;-69
2022/01/19 03:48:36;;;;;;;12.80;5.55;;;;;;;;;;5034144;28;20052;-77
2022/01/19 03:51:04;;;;;;;10.05;5.43;;;;;;;;;;5052148;28;20048;-72
2022/01/19 03:53:31;;;;;;;11.40;4.53;;;;;;;;;;5047142;28;21690;-79
2022/01/19 03:55:57;;;;;;;11.30;5.00;;;;;;;;;;5048711;28;20106;-67
2022/01/19 03:58:23;;;;;;;9.25;4.72;;;;;;;;;;5049048;28;20307;-72
2022/01/19 04:00:54;;;;;;;8.65;4.63;;;;;;;;;;5047352;28;20107;-73
2022/01/19 04:03:29;;;;;;;10.10;5.25;;;;;;;;;;5028523;28;21198;-70
2022/01/19 04:06:01;;;;;;;12.02;4.88;;;;;;;;;;5047850;28;20143;-75
2022/01/19 04:08:27;;;;;;;8.50;4.65;;;;;;;;;;5046115;28;20489;-67
2022/01/19 04:10:54;;;;;;;13.30;4.40;;;;;;;;;;5046954;28;20083;-68
2022/01/19 04:15:50;;;;;;;7.13;4.55;;;;;;;;;;5044365;28;20821;-73
2022/01/19 04:18:17;;;;;;;7.80;4.30;;;;;;;;;;5047980;28;20417;-76
2022/01/19 04:20:48;;;;;;;9.73;4.32;;;;;;;;;;5045905;28;20402;-81
2022/01/19 04:23:15;;;;;;;8.60;4.10;;;;;;;;;;5026360;28;20044;-80
2022/01/19 04:25:41;;;;;;;6.85;3.85;;;;;;;;;;5046398;28;20056;-78
2022/01/19 04:28:07;;;;;;;6.38;3.97;;;;;;;;;;5045712;28;20224;-80
2022/01/19 04:30:35;;;;;;;6.85;4.22;;;;;;;;;;5048200;28;20118;-76
2022/01/19 04:35:34;;;;;;;9.45;4.20;;;;;;;;;;5048248;28;20482;-77
2022/01/19 04:38:39;;;;;;;5.10;3.78;;;;;;;;;;5047346;28;20059;-70
2022/01/19 05:02:19;;;;;;;7.90;3.90;;;;;;;;;;5045622;28;20152;-72
2022/01/19 05:04:56;;;;;;;7.25;4.30;;;;;;;;;;5043850;28;20061;-79
2022/01/19 05:07:33;;;;;;;6.68;3.88;;;;;;;;;;5045922;28;20094;-81
2022/01/19 05:15:18;;;;;;;8.63;3.65;;;;;;;;;;5046566;28;20095;-74
2022/01/19 05:17:45;;;;;;;8.57;3.97;;;;;;;;;;5045459;28;20041;-74
2022/01/19 05:20:12;;;;;;;14.00;3.97;;;;;;;;;;5045929;28;20086;-74
2022/01/19 05:22:39;;;;;;;11.90;4.43;;;;;;;;;;5042337;28;20143;-81
2022/01/19 05:25:05;;;;;;;6.80;3.95;;;;;;;;;;5046536;28;20259;-83
2022/01/19 05:27:32;;;;;;;10.68;3.97;;;;;;;;;;5046118;28;20048;-77
2022/01/19 05:29:58;;;;;;;7.10;3.80;;;;;;;;;;5042948;28;20074;-70
2022/01/19 05:32:24;;;;;;;5.70;3.80;;;;;;;;;;5042614;28;20068;-80
2022/01/19 05:34:51;;;;;;;7.43;3.60;;;;;;;;;;5044133;28;20444;-76
2022/01/19 05:37:17;;;;;;;6.80;3.55;;;;;;;;;;5044976;28;20044;-71
2022/01/19 05:39:43;;;;;;;4.65;3.25;;;;;;;;;;5044670;28;20860;-80
2022/01/19 05:42:15;;;;;;;10.13;3.53;;;;;;;;;;5043595;28;20048;-76
2022/01/19 05:44:43;;;;;;;5.50;3.30;;;;;;;;;;5044779;28;20050;-73
2022/01/19 05:47:11;;;;;;;6.70;2.92;;;;;;;;;;5042192;28;20056;-74
2022/01/19 05:49:38;;;;;;;7.50;3.30;;;;;;;;;;5044416;28;20170;-76
2022/01/19 05:52:07;;;;;;;7.95;3.00;;;;;;;;;;5043999;28;20563;-71
2022/01/19 05:54:33;;;;;;;5.63;3.45;;;;;;;;;;5045019;28;20148;-77
2022/01/19 05:57:00;;;;;;;6.47;3.28;;;;;;;;;;5052050;28;20386;-72
2022/01/19 05:59:26;;;;;;;5.40;2.78;;;;;;;;;;5049461;28;20735;-80
2022/01/19 06:01:55;;;;;;;8.00;3.70;;;;;;;;;;5048232;28;20679;-81
2022/01/19 06:04:22;;;;;;;8.35;2.90;;;;;;;;;;5043630;28;20059;-79
2022/01/19 06:06:56;;;;;;;5.20;3.10;;;;;;;;;;5034060;28;21015;-78
2022/01/19 06:09:35;;;;;;;6.10;3.25;;;;;;;;;;5048704;28;20056;-83
2022/01/19 06:12:10;;;;;;;4.80;3.15;;;;;;;;;;5044846;28;20770;-82
2022/01/19 06:14:39;;;;;;;7.13;3.10;;;;;;;;;;5049482;28;20088;-78
2022/01/19 06:17:07;;;;;;;5.13;3.00;;;;;;;;;;5054659;28;20053;-70
2022/01/19 06:19:34;;;;;;;5.82;2.97;;;;;;;;;;5053757;28;20056;-77
2022/01/19 06:22:02;;;;;;;9.65;3.40;;;;;;;;;;5050266;28;20080;-80
2022/01/19 06:24:28;;;;;;;6.50;3.13;;;;;;;;;;5049955;28;20055;-84
2022/01/19 06:26:55;;;;;;;8.60;3.35;;;;;;;;;;5033000;28;20377;-74
2022/01/19 06:29:21;;;;;;;7.10;3.55;;;;;;;;;;5049228;28;20053;-69
2022/01/19 06:31:49;;;;;;;5.22;3.20;;;;;;;;;;5047646;28;20052;-73
2022/01/19 06:34:16;;;;;;;6.65;3.30;;;;;;;;;;5047497;28;20059;-77
2022/01/19 06:36:42;;;;;;;5.05;3.22;;;;;;;;;;5049138;28;20136;-74
2022/01/19 06:39:09;;;;;;;7.30;3.33;;;;;;;;;;5026575;28;20062;-82
2022/01/19 06:41:35;;;;;;;8.90;3.42;;;;;;;;;;5050894;28;20048;-77
2022/01/19 06:44:02;;;;;;;7.70;3.20;;;;;;;;;;5049315;28;20060;-78
2022/01/19 06:46:29;;;;;;;5.85;3.25;;;;;;;;;;5052025;28;20049;-75
2022/01/19 06:48:56;;;;;;;7.85;3.85;;;;;;;;;;5051672;28;20080;-81
2022/01/19 06:51:22;;;;;;;13.98;3.60;;;;;;;;;;5050775;28;20061;-67
2022/01/19 06:53:48;;;;;;;9.65;3.33;;;;;;;;;;5045803;28;20129;-73
2022/01/19 06:56:15;;;;;;;8.18;3.42;;;;;;;;;;5050772;28;20055;-70
2022/01/19 06:58:42;;;;;;;6.75;3.72;;;;;;;;;;5052642;28;20466;-74
2022/01/19 07:01:08;;;;;;;6.53;3.25;;;;;;;;;;5054057;28;20041;-77
2022/01/19 07:03:34;;;;;;;5.40;3.28;;;;;;;;;;5052982;28;20602;-73
2022/01/19 07:06:01;;;;;;;6.50;3.50;;;;;;;;;;5052691;28;20053;-71
2022/01/19 07:08:27;;;;;;;16.98;4.00;;;;;;;;;;5049132;28;20048;-70
2022/01/19 07:10:54;;;;;;;13.38;3.80;;;;;;;;;;5048001;28;20190;-73
2022/01/19 07:13:21;;;;;;;11.65;3.70;;;;;;;;;;5043628;28;20537;-75
2022/01/19 07:15:49;;;;;;;11.93;3.67;;;;;;;;;;5046074;28;20059;-76
2022/01/19 07:18:16;;;;;;;9.10;3.75;;;;;;;;;;5043046;28;20048;-76
2022/01/19 07:20:43;;;;;;;7.97;3.78;;;;;;;;;;5044126;28;20371;-78
2022/01/19 07:23:09;;;;;;;11.00;4.00;;;;;;;;;;5041211;28;20082;-77
2022/01/19 07:25:35;;;;;;;7.93;3.65;;;;;;;;;;5042263;28;20688;-79
2022/01/19 07:28:02;;;;;;;13.27;3.72;;;;;;;;;;5037968;28;20898;-78
2022/01/19 07:30:28;;;;;;;11.48;4.57;;;;;;;;;;5041248;28;20395;-78
2022/01/19 07:32:54;;;;;;;7.78;4.07;;;;;;;;;;5035201;28;20049;-77
2022/01/19 07:35:22;;;;;;;8.27;3.85;;;;;;;;;;5040849;28;20085;-75
2022/01/19 07:37:48;;;;;;;11.65;3.50;;;;;;;;;;5025692;28;20040;-77
2022/01/19 07:40:14;;;;;;;9.27;3.70;;;;;;;;;;5043697;28;20441;-75
2022/01/19 07:42:40;;;;;;;11.70;3.83;;;;;;;;;;5039087;28;20474;-77
2022/01/19 07:45:07;;;;;;;15.27;4.65;;;;;;;;;;5040297;28;20076;-75
2022/01/19 07:47:33;;;;;;;13.05;4.30;;;;;;;;;;5040871;28;20646;-80
2022/01/19 07:49:59;;;;;;;10.48;4.95;;;;;;;;;;5045961;28;20056;-76
2022/01/19 07:52:26;;;;;;;11.18;4.40;;;;;;;;;;5041426;28;20075;-79
2022/01/19 07:54:53;;;;;;;13.18;4.70;;;;;;;;;;5043871;28;20057;-73
2022/01/19 07:57:19;;;;;;;12.88;4.53;;;;;;;;;;5043025;28;20063;-75
2022/01/19 07:59:46;;;;;;;19.95;5.05;;;;;;;;;;5042141;28;20071;-80
2022/01/19 08:02:12;;;;;;;16.50;4.88;;;;;;;;;;5042590;28;20053;-79
2022/01/19 08:04:40;;;;;;;13.32;4.55;;;;;;;;;;5031228;28;20064;-80
2022/01/19 08:07:07;;;;;;;12.57;4.28;;;;;;;;;;5044188;28;20056;-80
2022/01/19 08:09:35;;;;;;;7.00;4.20;;;;;;;;;;5045854;28;20057;-78
2022/01/19 08:12:02;;;;;;;7.45;3.88;;;;;;;;;;5041406;28;20052;-79
2022/01/19 08:14:29;;;;;;;10.65;4.15;;;;;;;;;;5041484;28;21118;-82
2022/01/19 08:16:56;;;;;;;9.90;3.88;;;;;;;;;;5039237;28;20068;-70
2022/01/19 08:19:23;;;;;;;9.13;3.65;;;;;;;;;;5039158;28;20071;-81
2022/01/19 08:21:49;;;;;;;14.10;4.28;;;;;;;;;;5040113;28;21015;-76
2022/01/19 08:24:15;;;;;;;13.15;4.00;;;;;;;;;;5039070;28;20309;-76
2022/01/19 08:26:42;;;;;;;8.20;4.07;;;;;;;;;;5042158;28;20194;-82
2022/01/19 08:29:09;;;;;;;11.98;4.28;;;;;;;;;;5042355;28;20056;-80
2022/01/19 08:31:36;;;;;;;15.57;4.60;;;;;;;;;;5042341;28;20665;-75
2022/01/19 08:34:02;;;;;;;12.82;4.15;;;;;;;;;;5038001;28;21272;-77
2022/01/19 08:36:28;;;;;;;9.13;4.82;;;;;;;;;;5041682;28;20743;-81
2022/01/19 08:38:56;;;;;;;16.77;4.68;;;;;;;;;;5043780;28;20061;-73
2022/01/19 08:41:23;;;;;;;17.98;4.63;;;;;;;;;;5042543;28;20461;-79
2022/01/19 08:43:49;;;;;;;14.13;4.68;;;;;;;;;;5038140;28;20067;-80
2022/01/19 08:46:16;;;;;;;10.07;4.82;;;;;;;;;;5041502;28;20056;-76
2022/01/19 08:48:42;;;;;;;8.75;4.15;;;;;;;;;;5043965;28;20050;-81
2022/01/19 08:51:08;;;;;;;20.45;5.25;;;;;;;;;;5043358;28;20079;-77
2022/01/19 08:53:36;;;;;;;12.23;4.72;;;;;;;;;;5042056;28;20048;-77
2022/01/19 08:56:03;;;;;;;13.40;6.45;;;;;;;;;;5047510;28;20064;-73
2022/01/19 08:58:29;;;;;;;13.95;4.68;;;;;;;;;;5042034;28;20508;-79
2022/01/19 09:00:56;;;;;;;19.40;4.60;;;;;;;;;;5043585;28;20406;-74
2022/01/19 09:03:22;;;;;;;12.77;4.85;;;;;;;;;;5035002;28;20044;-80
2022/01/19 09:05:49;;;;;;;18.90;4.40;;;;;;;;;;5034907;28;20053;-79
2022/01/19 09:08:15;;;;;;;12.70;4.95;;;;;;;;;;5040004;28;20052;-73
2022/01/19 09:10:42;;;;;;;9.13;4.40;;;;;;;;;;5042049;28;20045;-75
2022/01/19 09:13:09;;;;;;;18.10;4.72;;;;;;;;;;5037598;28;20467;-77
2022/01/19 09:15:35;;;;;;;14.52;4.75;;;;;;;;;;5038783;28;20062;-79
2022/01/19 09:18:02;;;;;;;8.63;4.57;;;;;;;;;;5043609;28;20110;-76
2022/01/19 09:20:29;;;;;;;11.43;4.15;;;;;;;;;;5043254;28;20045;-82
2022/01/19 09:22:55;;;;;;;11.25;4.53;;;;;;;;;;5033303;28;20155;-76
2022/01/19 09:25:21;;;;;;;20.00;4.80;;;;;;;;;;5043939;28;20233;-78
2022/01/19 09:27:48;;;;;;;13.32;4.55;;;;;;;;;;5039191;28;20634;-78
2022/01/19 09:30:18;;;;;;;12.38;4.50;;;;;;;;;;5041900;28;20049;-84
2022/01/19 09:32:54;;;;;;;17.55;4.82;;;;;;;;;;5037817;28;20550;-73
2022/01/19 09:35:26;;;;;;;13.75;4.40;;;;;;;;;;5043156;28;20057;-80
2022/01/19 09:37:53;;;;;;;14.02;3.90;;;;;;;;;;5042839;28;20103;-77
2022/01/19 09:40:19;;;;;;;9.68;4.30;;;;;;;;;;5044229;28;20105;-79
2022/01/19 09:42:48;;;;;;;12.02;4.30;;;;;;;;;;5043475;28;20075;-73
2022/01/19 09:45:14;;;;;;;13.55;4.47;;;;;;;;;;5040929;28;20052;-73
2022/01/19 09:47:41;;;;;;;11.82;4.90;;;;;;;;;;5042678;28;20067;-83
2022/01/19 09:50:08;;;;;;;18.45;4.72;;;;;;;;;;5039769;28;20102;-73
2022/01/19 09:52:38;;;;;;;9.52;4.35;;;;;;;;;;5042092;28;20071;-80
2022/01/19 09:55:06;;;;;;;11.57;4.70;;;;;;;;;;5044781;28;20076;-81
2022/01/19 09:57:33;;;;;;;13.70;4.50;;;;;;;;;;5042619;28;20048;-80
2022/01/19 09:59:59;;;;;;;17.40;4.85;;;;;;;;;;5024941;28;20060;-78
2022/01/19 10:02:25;;;;;;;13.68;4.13;;;;;;;;;;5037718;28;20154;-77
2022/01/19 10:04:52;;;;;;;16.92;4.50;;;;;;;;;;5041582;28;20473;-75
2022/01/19 10:07:21;;;;;;;12.13;4.97;;;;;;;;;;5044537;28;20052;-81
2022/01/19 10:09:59;;;;;;;16.75;4.30;;;;;;;;;;5042322;28;20567;-74
2022/01/19 10:18:10;;;;;;;10.60;4.70;;;;;;;;;;5041555;28;20060;-75
2022/01/19 10:20:36;;;;;;;9.10;3.88;;;;;;;;;;5044445;28;20133;-79
2022/01/19 10:23:03;;;;;;;12.25;4.60;;;;;;;;;;5037140;28;20066;-80
2022/01/19 10:25:50;;;;;;;9.43;4.47;;;;;;;;;;5041089;28;20101;-80
2022/01/19 10:28:17;;;;;;;11.52;5.85;;;;;;;;;;5043284;28;20052;-76
2022/01/19 10:30:44;;;;;;;10.52;4.45;;;;;;;;;;5037981;28;20565;-78
2022/01/19 10:33:17;;;;;;;15.02;4.50;;;;;;;;;;5029801;28;20086;-77
2022/01/19 10:35:47;;;;;;;13.15;4.45;;;;;;;;;;5039606;28;20053;-78
2022/01/19 10:38:26;;;;;;;12.35;4.78;;;;;;;;;;5040537;28;20053;-83
2022/01/19 10:40:58;;;;;;;11.88;4.47;;;;;;;;;;5042038;28;20139;-78
2022/01/19 10:43:41;;;;;;;15.25;5.30;;;;;;;;;;5041771;28;20072;-82
2022/01/19 10:46:45;;;;;;;11.05;5.00;;;;;;;;;;5026826;28;20110;-82
2022/01/19 10:49:11;;;;;;;18.75;4.65;;;;;;;;;;4979603;28;20088;-80
2022/01/19 10:51:45;;;;;;;18.55;5.78;;;;;;;;;;4965592;28;20680;-81
2022/01/19 10:54:13;;;;;;;9.73;5.23;;;;;;;;;;4962945;28;20065;-78
2022/01/19 10:56:41;;;;;;;18.00;4.78;;;;;;;;;;4963263;28;20053;-81
2022/01/19 10:59:13;;;;;;;13.40;5.45;;;;;;;;;;4980273;28;20127;-79
2022/01/19 11:01:56;;;;;;;16.13;5.32;;;;;;;;;;4980313;28;20050;-79
2022/01/19 11:04:39;;;;;;;10.38;5.35;;;;;;;;;;4981939;28;20544;-79
2022/01/19 11:07:11;;;;;;;10.82;4.90;;;;;;;;;;4983967;28;20658;-79
2022/01/19 11:09:56;;;;;;;16.25;6.13;;;;;;;;;;4967018;28;20057;-82
2022/01/19 11:12:28;;;;;;;11.88;5.47;;;;;;;;;;4956144;28;20053;-80
2022/01/19 11:14:56;;;;;;;12.98;5.38;;;;;;;;;;4963715;28;21395;-78
2022/01/19 11:17:23;;;;;;;15.50;5.55;;;;;;;;;;4965280;28;20157;-76
2022/01/19 11:19:50;;;;;;;14.90;5.68;;;;;;;;;;4968842;28;20049;-74
2022/01/19 11:22:39;;;;;;;9.18;5.60;;;;;;;;;;4972744;28;20137;-77
2022/01/19 11:25:28;;;;;;;12.90;5.55;;;;;;;;;;5044377;28;20055;-76
2022/01/19 11:27:57;;;;;;;18.02;5.22;;;;;;;;;;5045544;28;20052;-80
2022/01/19 11:30:32;;;;;;;10.38;5.70;;;;;;;;;;5045564;28;20822;-81
2022/01/19 11:33:28;;;;;;;12.43;5.70;;;;;;;;;;5038384;28;20657;-78
2022/01/19 11:36:01;;;;;;;13.25;6.28;;;;;;;;;;5043485;28;20056;-74
2022/01/19 11:38:39;;;;;;;13.32;5.25;;;;;;;;;;5043144;28;20048;-71
2022/01/19 11:41:09;;;;;;;13.23;5.70;;;;;;;;;;5044322;28;20528;-72
2022/01/19 11:43:49;;;;;;;11.60;5.40;;;;;;;;;;5041515;28;20099;-75
2022/01/19 11:46:31;;;;;;;10.57;5.20;;;;;;;;;;5042585;28;20066;-77
2022/01/19 11:49:03;;;;;;;15.20;5.40;;;;;;;;;;5043874;28;20475;-73
2022/01/19 11:51:53;;;;;;;10.85;5.88;;;;;;;;;;5028157;28;20056;-77
2022/01/19 11:54:33;;;;;;;13.57;6.97;;;;;;;;;;5042664;28;20183;-78
2022/01/19 11:56:59;;;;;;;15.65;6.15;;;;;;;;;;5027848;28;20063;-72
2022/01/19 11:59:32;;;;;;;12.23;5.75;;;;;;;;;;5045300;28;20084;-80
2022/01/19 12:02:32;;;;;;;14.65;6.00;;;;;;;;;;5043031;28;20086;-75
2022/01/19 12:05:07;;;;;;;12.68;6.28;;;;;;;;;;5027262;28;20143;-75
2022/01/19 12:07:35;;;;;;;;;;;;;;;;;;5044544;28;20071;-82
2022/01/19 12:10:05;;;;;;;16.45;6.28;;;;;;;;;;5043861;28;20854;-79
2022/01/19 12:12:36;;;;;;;15.13;7.32;;;;;;;;;;5040917;28;20183;-83
2022/01/19 12:15:07;;;;;;;13.80;7.05;;;;;;;;;;5025112;28;20107;-80
2022/01/19 12:17:56;;;;;;;19.90;6.78;;;;;;;;;;5045139;28;20129;-76
2022/01/19 12:20:55;;;;;;;14.37;7.20;;;;;;;;;;5047727;28;20057;-77
2022/01/19 12:23:31;;;;;;;17.33;6.68;;;;;;;;;;5044913;28;20316;-80
2022/01/19 12:26:02;;;;;;;11.85;6.43;;;;;;;;;;5044246;28;20084;-78
2022/01/19 12:28:47;;;;;;;16.45;6.20;;;;;;;;;;5045652;28;20048;-79
2022/01/19 12:31:22;;;;;;;11.85;5.40;;;;;;;;;;5048897;28;20064;-79
2022/01/19 12:34:09;;;;;;;8.80;4.68;;;;;;;;;;5044503;28;20101;-74
2022/01/19 12:36:58;;;;;;;7.68;4.93;;;;;;;;;;5046659;28;20056;-76
2022/01/19 12:39:28;;;;;;;7.00;4.72;;;;;;;;;;5047347;28;20048;-83
2022/01/19 12:42:04;;;;;;;8.07;4.65;;;;;;;;;;5047403;28;20198;-75
2022/01/19 12:44:50;;;;;;;13.82;5.25;;;;;;;;;;5045494;28;20075;-77
2022/01/19 12:47:29;;;;;;;10.73;3.92;;;;;;;;;;5028979;28;20577;-81
2022/01/19 12:50:18;;;;;;;4.00;2.70;;;;;;;;;;5046543;28;20053;-72
2022/01/19 12:52:53;;;;;;;5.60;3.63;;;;;;;;;;5041778;28;20048;-76
2022/01/19 12:55:22;;;;;;;6.20;2.92;;;;;;;;;;5047029;28;20087;-76
2022/01/19 12:57:49;;;;;;;6.47;3.30;;;;;;;;;;5046452;28;20136;-78
2022/01/19 13:00:21;;;;;;;6.35;3.00;;;;;;;;;;5046585;28;20061;-75
2022/01/19 13:02:48;;;;;;;3.38;2.60;;;;;;;;;;5042335;28;20063;-81
2022/01/19 13:05:18;;;;;;;4.15;3.03;;;;;;;;;;5027368;28;20484;-82
2022/01/19 13:07:54;;;;;;;7.28;3.10;;;;;;;;;;5044602;28;20052;-71
2022/01/19 13:12:59;;;;;;;5.03;2.90;;;;;;;;;;5042869;28;21587;-78
2022/01/19 13:15:48;;;;;;;7.70;3.53;;;;;;;;;;5046717;28;20050;-74
2022/01/19 13:18:28;;;;;;;10.27;3.70;;;;;;;;;;5043655;28;20048;-83
2022/01/19 13:20:57;;;;;;;9.55;5.05;;;;;;;;;;5045810;28;20854;-75
2022/01/19 13:23:24;;;;;;;8.18;4.00;;;;;;;;;;5041349;28;20171;-77
2022/01/19 13:25:59;;;;;;;5.47;3.60;;;;;;;;;;5054147;28;20055;-75
2022/01/19 13:28:30;;;;;;;8.70;4.00;;;;;;;;;;5055171;28;20052;-78
2022/01/19 13:31:17;;;;;;;6.80;4.35;;;;;;;;;;5049277;28;20370;-80
2022/01/19 13:33:58;;;;;;;7.72;4.40;;;;;;;;;;5040330;28;20061;-72
2022/01/19 13:36:31;;;;;;;8.88;4.50;;;;;;;;;;5060344;28;20161;-82
2022/01/19 13:38:57;;;;;;;7.75;3.53;;;;;;;;;;5043889;28;20190;-79
2022/01/19 13:41:24;;;;;;;7.82;3.90;;;;;;;;;;5046288;28;20072;-82
2022/01/19 13:43:52;;;;;;;13.00;5.53;;;;;;;;;;5045662;28;20607;-80
2022/01/19 13:46:29;;;;;;;7.40;4.47;;;;;;;;;;5049563;28;20402;-83
2022/01/19 13:48:58;;;;;;;9.48;4.72;;;;;;;;;;5064514;28;20489;-85
2022/01/19 13:51:26;;;;;;;7.13;4.07;;;;;;;;;;5031172;28;20643;-80
2022/01/19 13:53:54;;;;;;;7.45;3.75;;;;;;;;;;5045514;28;20060;-83
2022/01/19 13:56:30;;;;;;;8.30;4.40;;;;;;;;;;5048498;28;20490;-78
2022/01/19 13:59:04;;;;;;;9.80;4.03;;;;;;;;;;5048808;28;20223;-82
2022/01/19 14:02:02;;;;;;;6.63;4.20;;;;;;;;;;5045684;28;20077;-77
2022/01/19 14:04:31;;;;;;;8.65;4.45;;;;;;;;;;5045057;28;20139;-81
2022/01/19 14:07:10;;;;;;;7.75;3.58;;;;;;;;;;5049286;28;20362;-81
2022/01/19 14:09:37;;;;;;;4.82;3.30;;;;;;;;;;5049477;28;20393;-83
2022/01/19 14:12:06;;;;;;;5.70;3.50;;;;;;;;;;5050098;28;20679;-79
2022/01/19 14:14:36;;;;;;;7.22;3.72;;;;;;;;;;5045579;28;20086;-80
2022/01/19 14:17:10;;;;;;;4.50;3.30;;;;;;;;;;5050338;28;20580;-81
2022/01/19 14:19:43;;;;;;;6.55;3.55;;;;;;;;;;5054687;28;20049;-84
2022/01/19 14:22:21;;;;;;;11.93;4.07;;;;;;;;;;5053868;28;20524;-80
2022/01/19 14:24:55;;;;;;;12.23;5.28;;;;;;;;;;5053048;28;20147;-81
2022/01/19 14:27:24;;;;;;;13.32;4.63;;;;;;;;;;5051524;28;20395;-74
2022/01/19 14:29:57;;;;;;;5.90;4.20;;;;;;;;;;5051542;28;20402;-76
2022/01/19 14:32:37;;;;;;;9.18;4.80;;;;;;;;;;5045338;28;20438;-79
2022/01/19 14:35:23;;;;;;;5.55;4.28;;;;;;;;;;5051407;28;20143;-70
2022/01/19 14:38:00;;;;;;;9.57;4.85;;;;;;;;;;5050450;28;20487;-75
2022/01/19 14:40:28;;;;;;;5.60;3.75;;;;;;;;;;5049022;28;20049;-81
2022/01/19 14:42:54;;;;;;;8.80;3.90;;;;;;;;;;5045894;28;20101;-83
2022/01/19 14:45:34;;;;;;;6.13;3.47;;;;;;;;;;5049564;28;20510;-76
2022/01/19 14:48:12;;;;;;;6.07;3.88;;;;;;;;;;5048033;28;20277;-81
2022/01/19 14:50:39;;;;;;;7.93;4.18;;;;;;;;;;5046722;28;20076;-74
2022/01/19 14:53:06;;;;;;;8.07;4.00;;;;;;;;;;5044224;28;20175;-79
2022/01/19 14:55:34;;;;;;;6.93;3.40;;;;;;;;;;5048684;28;20061;-74
2022/01/19 14:58:04;;;;;;;5.18;3.40;;;;;;;;;;5048432;28;20386;-76
2022/01/19 15:00:32;;;;;;;5.28;3.70;;;;;;;;;;5047135;28;20381;-80
2022/01/19 15:03:00;;;;;;;6.05;3.40;;;;;;;;;;5043997;28;20487;-72
2022/01/19 15:05:30;;;;;;;7.28;4.13;;;;;;;;;;5044542;28;20101;-78
2022/01/19 15:07:57;;;;;;;8.57;4.75;;;;;;;;;;5050203;28;20053;-80
2022/01/19 15:10:26;;;;;;;6.45;3.95;;;;;;;;;;5046008;28;20053;-73
2022/01/19 15:12:53;;;;;;;5.85;3.90;;;;;;;;;;5025806;28;20441;-84
2022/01/19 15:15:26;;;;;;;9.02;3.80;;;;;;;;;;5046420;28;20167;-72
2022/01/19 15:17:58;;;;;;;8.63;4.35;;;;;;;;;;5048425;28;20067;-74
2022/01/19 15:20:30;;;;;;;6.65;3.72;;;;;;;;;;5047586;28;20074;-78
2022/01/19 15:23:00;;;;;;;6.78;3.30;;;;;;;;;;5044682;28;20052;-81
2022/01/19 15:25:31;;;;;;;5.88;3.40;;;;;;;;;;5046516;28;20044;-75
2022/01/19 15:27:59;;;;;;;6.97;2.85;;;;;;;;;;5051004;28;20061;-81
2022/01/19 15:30:32;;;;;;;6.10;2.90;;;;;;;;;;5047998;28;20095;-84
2022/01/19 15:32:59;;;;;;;6.15;3.58;;;;;;;;;;5045814;28;20044;-81
2022/01/19 15:35:26;;;;;;;6.45;3.55;;;;;;;;;;5048986;28;20275;-75
2022/01/19 15:37:55;;;;;;;5.38;3.17;;;;;;;;;;5048609;28;20054;-74
2022/01/19 15:40:25;;;;;;;5.40;3.47;;;;;;;;;;5047280;28;20555;-75
2022/01/19 15:42:53;;;;;;;7.20;3.38;;;;;;;;;;5043337;28;20056;-82
2022/01/19 15:45:21;;;;;;;8.35;3.35;;;;;;;;;;5045666;28;20083;-81
2022/01/19 15:47:47;;;;;;;9.18;4.18;;;;;;;;;;5039881;28;20588;-76
2022/01/19 15:50:14;;;;;;;6.85;4.40;;;;;;;;;;5063497;28;20150;-70
2022/01/19 15:52:41;;;;;;;9.32;4.22;;;;;;;;;;5043234;28;20064;-76
2022/01/19 15:55:08;;;;;;;6.85;3.20;;;;;;;;;;5048321;28;20049;-76
2022/01/19 15:57:35;;;;;;;9.32;3.53;;;;;;;;;;5048301;28;20056;-75
2022/01/19 16:00:05;;;;;;;7.93;3.75;;;;;;;;;;5047804;28;20143;-75
2022/01/19 16:02:32;;;;;;;4.63;3.22;;;;;;;;;;5046818;28;20072;-79
2022/01/19 16:04:58;;;;;;;8.32;3.30;;;;;;;;;;5048055;28;20076;-74
2022/01/19 16:07:25;;;;;;;6.03;3.03;;;;;;;;;;5046659;28;20401;-70
2022/01/19 16:09:51;;;;;;;6.53;3.25;;;;;;;;;;5047700;28;20052;-75
2022/01/19 16:12:21;;;;;;;6.30;3.78;;;;;;;;;;5045671;28;20056;-76
2022/01/19 16:14:48;;;;;;;7.80;3.90;;;;;;;;;;5046046;28;20087;-81
2022/01/19 16:17:14;;;;;;;6.05;3.97;;;;;;;;;;5047490;28;20374;-71